sensor_id;sensor_type;location;lat;lon;timestamp;P1;durP1;ratioP1;P2;durP2;ratioP2
34019;SDS011;20895;51.034;3.742;2023-04-03T00:00:07;11.02;;;7.10;;
34019;SDS011;20895;51.034;3.742;2023-04-03T00:02:32;9.85;;;8.35;;
34019;SDS011;20895;51.034;3.742;2023-04-03T00:04:58;12.55;;;7.97;;
34019;SDS011;20895;51.034;3.742;2023-04-03T00:07:23;12.18;;;8.70;;
34019;SDS011;20895;51.034;3.742;2023-04-03T00:09:48;11.45;;;7.75;;
34019;SDS011;20895;51.034;3.742;2023-04-03T00:12:14;11.88;;;6.90;;
34019;SDS011;20895;51.034;3.742;2023-04-03T00:14:40;10.52;;;6.90;;
34019;SDS011;20895;51.034;3.742;2023-04-03T00:17:05;9.45;;;6.95;;
34019;SDS011;20895;51.034;3.742;2023-04-03T00:19:31;8.25;;;6.78;;
34019;SDS011;20895;51.034;3.742;2023-04-03T00:21:56;9.50;;;7.07;;
34019;SDS011;20895;51.034;3.742;2023-04-03T00:24:21;10.27;;;7.18;;
34019;SDS011;20895;51.034;3.742;2023-04-03T00:26:47;9.77;;;6.90;;
34019;SDS011;20895;51.034;3.742;2023-04-03T00:29:12;9.48;;;6.55;;
34019;SDS011;20895;51.034;3.742;2023-04-03T00:31:37;9.02;;;5.93;;
34019;SDS011;20895;51.034;3.742;2023-04-03T00:34:03;11.60;;;6.05;;
34019;SDS011;20895;51.034;3.742;2023-04-03T00:36:28;8.27;;;5.90;;
34019;SDS011;20895;51.034;3.742;2023-04-03T00:38:53;8.73;;;6.00;;
34019;SDS011;20895;51.034;3.742;2023-04-03T00:41:19;9.00;;;6.57;;
34019;SDS011;20895;51.034;3.742;2023-04-03T00:43:44;8.55;;;5.90;;
34019;SDS011;20895;51.034;3.742;2023-04-03T00:46:10;9.80;;;5.40;;
34019;SDS011;20895;51.034;3.742;2023-04-03T00:48:39;8.52;;;6.70;;
34019;SDS011;20895;51.034;3.742;2023-04-03T00:51:06;9.27;;;6.70;;
34019;SDS011;20895;51.034;3.742;2023-04-03T00:53:34;10.85;;;6.10;;
34019;SDS011;20895;51.034;3.742;2023-04-03T00:56:01;8.82;;;6.22;;
34019;SDS011;20895;51.034;3.742;2023-04-03T00:58:31;9.52;;;6.47;;
34019;SDS011;20895;51.034;3.742;2023-04-03T01:00:58;9.85;;;5.53;;
34019;SDS011;20895;51.034;3.742;2023-04-03T01:03:24;8.00;;;6.40;;
34019;SDS011;20895;51.034;3.742;2023-04-03T01:05:50;12.68;;;6.63;;
34019;SDS011;20895;51.034;3.742;2023-04-03T01:08:15;10.77;;;6.35;;
34019;SDS011;20895;51.034;3.742;2023-04-03T01:10:40;7.15;;;5.65;;
34019;SDS011;20895;51.034;3.742;2023-04-03T01:16:04;9.73;;;6.90;;
34019;SDS011;20895;51.034;3.742;2023-04-03T01:18:30;7.93;;;5.50;;
34019;SDS011;20895;51.034;3.742;2023-04-03T01:21:13;10.73;;;6.60;;
34019;SDS011;20895;51.034;3.742;2023-04-03T01:26:10;8.30;;;5.75;;
34019;SDS011;20895;51.034;3.742;2023-04-03T01:28:37;9.20;;;5.78;;
34019;SDS011;20895;51.034;3.742;2023-04-03T01:31:05;10.23;;;5.47;;
34019;SDS011;20895;51.034;3.742;2023-04-03T01:33:33;9.13;;;5.82;;
34019;SDS011;20895;51.034;3.742;2023-04-03T01:35:58;9.43;;;6.03;;
34019;SDS011;20895;51.034;3.742;2023-04-03T01:38:23;8.93;;;5.95;;
34019;SDS011;20895;51.034;3.742;2023-04-03T01:40:49;8.88;;;5.90;;
34019;SDS011;20895;51.034;3.742;2023-04-03T01:43:14;10.52;;;6.38;;
34019;SDS011;20895;51.034;3.742;2023-04-03T01:45:40;10.18;;;5.65;;
34019;SDS011;20895;51.034;3.742;2023-04-03T01:48:05;9.48;;;5.78;;
34019;SDS011;20895;51.034;3.742;2023-04-03T01:50:30;7.88;;;5.63;;
34019;SDS011;20895;51.034;3.742;2023-04-03T01:52:55;8.23;;;5.88;;
34019;SDS011;20895;51.034;3.742;2023-04-03T01:55:21;9.00;;;6.43;;
34019;SDS011;20895;51.034;3.742;2023-04-03T01:57:46;9.65;;;5.78;;
34019;SDS011;20895;51.034;3.742;2023-04-03T02:00:12;6.82;;;5.72;;
34019;SDS011;20895;51.034;3.742;2023-04-03T02:02:37;8.45;;;6.00;;
34019;SDS011;20895;51.034;3.742;2023-04-03T02:05:03;8.13;;;5.82;;
34019;SDS011;20895;51.034;3.742;2023-04-03T02:07:28;10.50;;;7.20;;
34019;SDS011;20895;51.034;3.742;2023-04-03T02:09:53;12.65;;;6.55;;
34019;SDS011;20895;51.034;3.742;2023-04-03T02:12:18;9.82;;;6.38;;
34019;SDS011;20895;51.034;3.742;2023-04-03T02:14:44;7.78;;;6.40;;
34019;SDS011;20895;51.034;3.742;2023-04-03T02:17:10;7.65;;;5.80;;
34019;SDS011;20895;51.034;3.742;2023-04-03T02:19:35;8.52;;;6.15;;
34019;SDS011;20895;51.034;3.742;2023-04-03T02:22:01;10.25;;;6.47;;
34019;SDS011;20895;51.034;3.742;2023-04-03T02:24:27;8.40;;;5.95;;
34019;SDS011;20895;51.034;3.742;2023-04-03T02:26:52;12.57;;;6.30;;
34019;SDS011;20895;51.034;3.742;2023-04-03T02:29:18;8.55;;;6.32;;
34019;SDS011;20895;51.034;3.742;2023-04-03T02:31:43;9.65;;;6.70;;
34019;SDS011;20895;51.034;3.742;2023-04-03T02:34:09;11.38;;;6.47;;
34019;SDS011;20895;51.034;3.742;2023-04-03T02:36:34;8.15;;;6.40;;
34019;SDS011;20895;51.034;3.742;2023-04-03T02:38:59;9.20;;;6.30;;
34019;SDS011;20895;51.034;3.742;2023-04-03T02:41:25;10.63;;;6.20;;
34019;SDS011;20895;51.034;3.742;2023-04-03T02:43:53;8.52;;;6.47;;
34019;SDS011;20895;51.034;3.742;2023-04-03T02:46:18;10.38;;;7.13;;
34019;SDS011;20895;51.034;3.742;2023-04-03T02:48:43;10.25;;;6.28;;
34019;SDS011;20895;51.034;3.742;2023-04-03T02:51:09;7.32;;;6.22;;
34019;SDS011;20895;51.034;3.742;2023-04-03T02:53:34;15.00;;;9.50;;
34019;SDS011;20895;51.034;3.742;2023-04-03T02:56:00;9.82;;;6.32;;
34019;SDS011;20895;51.034;3.742;2023-04-03T02:58:25;18.92;;;8.38;;
34019;SDS011;20895;51.034;3.742;2023-04-03T03:00:50;10.45;;;6.90;;
34019;SDS011;20895;51.034;3.742;2023-04-03T03:03:15;11.63;;;7.20;;
34019;SDS011;20895;51.034;3.742;2023-04-03T03:05:41;17.00;;;6.95;;
34019;SDS011;20895;51.034;3.742;2023-04-03T03:08:06;7.38;;;5.70;;
34019;SDS011;20895;51.034;3.742;2023-04-03T03:10:31;9.85;;;6.45;;
34019;SDS011;20895;51.034;3.742;2023-04-03T03:12:56;7.88;;;6.32;;
34019;SDS011;20895;51.034;3.742;2023-04-03T03:15:22;10.82;;;6.20;;
34019;SDS011;20895;51.034;3.742;2023-04-03T03:17:47;10.05;;;6.50;;
34019;SDS011;20895;51.034;3.742;2023-04-03T03:20:12;10.70;;;6.32;;
34019;SDS011;20895;51.034;3.742;2023-04-03T03:22:40;9.90;;;6.28;;
34019;SDS011;20895;51.034;3.742;2023-04-03T03:25:05;7.80;;;5.72;;
34019;SDS011;20895;51.034;3.742;2023-04-03T03:27:31;10.80;;;6.35;;
34019;SDS011;20895;51.034;3.742;2023-04-03T03:29:56;12.18;;;6.38;;
34019;SDS011;20895;51.034;3.742;2023-04-03T03:32:21;9.63;;;6.05;;
34019;SDS011;20895;51.034;3.742;2023-04-03T03:34:46;9.48;;;6.75;;
34019;SDS011;20895;51.034;3.742;2023-04-03T03:37:12;8.93;;;6.22;;
34019;SDS011;20895;51.034;3.742;2023-04-03T03:39:37;6.97;;;6.00;;
34019;SDS011;20895;51.034;3.742;2023-04-03T03:42:02;10.32;;;7.10;;
34019;SDS011;20895;51.034;3.742;2023-04-03T03:44:28;8.68;;;5.95;;
34019;SDS011;20895;51.034;3.742;2023-04-03T03:46:54;10.60;;;6.22;;
34019;SDS011;20895;51.034;3.742;2023-04-03T03:49:19;10.07;;;5.95;;
34019;SDS011;20895;51.034;3.742;2023-04-03T03:51:45;11.32;;;5.95;;
34019;SDS011;20895;51.034;3.742;2023-04-03T03:54:10;9.48;;;6.53;;
34019;SDS011;20895;51.034;3.742;2023-04-03T03:56:35;9.15;;;5.85;;
34019;SDS011;20895;51.034;3.742;2023-04-03T03:59:01;8.80;;;5.88;;
34019;SDS011;20895;51.034;3.742;2023-04-03T04:01:26;20.90;;;19.08;;
34019;SDS011;20895;51.034;3.742;2023-04-03T04:03:51;10.40;;;6.40;;
34019;SDS011;20895;51.034;3.742;2023-04-03T04:06:18;14.60;;;7.03;;
34019;SDS011;20895;51.034;3.742;2023-04-03T04:08:44;9.48;;;5.75;;
34019;SDS011;20895;51.034;3.742;2023-04-03T04:11:09;7.57;;;5.97;;
34019;SDS011;20895;51.034;3.742;2023-04-03T04:13:34;7.82;;;6.00;;
34019;SDS011;20895;51.034;3.742;2023-04-03T04:16:00;10.60;;;7.22;;
34019;SDS011;20895;51.034;3.742;2023-04-03T04:18:25;11.52;;;6.80;;
34019;SDS011;20895;51.034;3.742;2023-04-03T04:20:51;8.13;;;6.47;;
34019;SDS011;20895;51.034;3.742;2023-04-03T04:23:17;9.18;;;6.53;;
34019;SDS011;20895;51.034;3.742;2023-04-03T04:25:46;10.52;;;5.72;;
34019;SDS011;20895;51.034;3.742;2023-04-03T04:28:11;8.10;;;5.82;;
34019;SDS011;20895;51.034;3.742;2023-04-03T04:30:37;11.07;;;6.35;;
34019;SDS011;20895;51.034;3.742;2023-04-03T04:33:02;9.77;;;6.80;;
34019;SDS011;20895;51.034;3.742;2023-04-03T04:35:28;10.15;;;6.18;;
34019;SDS011;20895;51.034;3.742;2023-04-03T04:37:53;8.15;;;5.90;;
34019;SDS011;20895;51.034;3.742;2023-04-03T04:40:18;8.48;;;6.15;;
34019;SDS011;20895;51.034;3.742;2023-04-03T04:42:44;13.70;;;6.72;;
34019;SDS011;20895;51.034;3.742;2023-04-03T04:45:09;14.30;;;6.68;;
34019;SDS011;20895;51.034;3.742;2023-04-03T04:47:35;10.13;;;6.70;;
34019;SDS011;20895;51.034;3.742;2023-04-03T04:50:00;9.18;;;6.63;;
34019;SDS011;20895;51.034;3.742;2023-04-03T04:52:25;10.30;;;7.13;;
34019;SDS011;20895;51.034;3.742;2023-04-03T04:54:51;7.63;;;6.60;;
34019;SDS011;20895;51.034;3.742;2023-04-03T04:57:16;9.38;;;7.55;;
34019;SDS011;20895;51.034;3.742;2023-04-03T04:59:42;10.93;;;6.50;;
34019;SDS011;20895;51.034;3.742;2023-04-03T05:02:07;11.57;;;7.22;;
34019;SDS011;20895;51.034;3.742;2023-04-03T05:04:32;9.90;;;7.00;;
34019;SDS011;20895;51.034;3.742;2023-04-03T05:06:58;9.25;;;7.28;;
34019;SDS011;20895;51.034;3.742;2023-04-03T05:09:24;9.02;;;6.45;;
34019;SDS011;20895;51.034;3.742;2023-04-03T05:11:49;10.40;;;7.38;;
34019;SDS011;20895;51.034;3.742;2023-04-03T05:14:14;8.52;;;6.97;;
34019;SDS011;20895;51.034;3.742;2023-04-03T05:16:40;14.13;;;6.93;;
34019;SDS011;20895;51.034;3.742;2023-04-03T05:19:05;13.23;;;7.82;;
34019;SDS011;20895;51.034;3.742;2023-04-03T05:21:31;11.73;;;7.10;;
34019;SDS011;20895;51.034;3.742;2023-04-03T05:24:00;10.40;;;6.78;;
34019;SDS011;20895;51.034;3.742;2023-04-03T05:26:27;10.35;;;7.70;;
34019;SDS011;20895;51.034;3.742;2023-04-03T05:28:53;9.95;;;7.68;;
34019;SDS011;20895;51.034;3.742;2023-04-03T05:31:18;13.30;;;7.72;;
34019;SDS011;20895;51.034;3.742;2023-04-03T05:33:43;11.70;;;8.00;;
34019;SDS011;20895;51.034;3.742;2023-04-03T05:36:09;10.30;;;7.05;;
34019;SDS011;20895;51.034;3.742;2023-04-03T05:38:34;10.57;;;7.30;;
34019;SDS011;20895;51.034;3.742;2023-04-03T05:40:59;12.02;;;7.82;;
34019;SDS011;20895;51.034;3.742;2023-04-03T05:43:25;10.18;;;7.78;;
34019;SDS011;20895;51.034;3.742;2023-04-03T05:45:51;13.00;;;8.05;;
34019;SDS011;20895;51.034;3.742;2023-04-03T05:48:17;8.57;;;7.38;;
34019;SDS011;20895;51.034;3.742;2023-04-03T05:50:42;8.75;;;7.00;;
34019;SDS011;20895;51.034;3.742;2023-04-03T05:53:18;10.45;;;7.70;;
34019;SDS011;20895;51.034;3.742;2023-04-03T05:55:46;10.73;;;7.32;;
34019;SDS011;20895;51.034;3.742;2023-04-03T05:58:11;10.77;;;7.60;;
34019;SDS011;20895;51.034;3.742;2023-04-03T06:00:36;10.60;;;8.25;;
34019;SDS011;20895;51.034;3.742;2023-04-03T06:03:02;14.63;;;10.05;;
34019;SDS011;20895;51.034;3.742;2023-04-03T06:05:27;9.30;;;7.85;;
34019;SDS011;20895;51.034;3.742;2023-04-03T06:07:52;10.27;;;7.70;;
34019;SDS011;20895;51.034;3.742;2023-04-03T06:10:18;10.95;;;8.68;;
34019;SDS011;20895;51.034;3.742;2023-04-03T06:12:45;11.38;;;7.70;;
34019;SDS011;20895;51.034;3.742;2023-04-03T06:15:10;11.82;;;7.80;;
34019;SDS011;20895;51.034;3.742;2023-04-03T06:17:36;12.15;;;7.70;;
34019;SDS011;20895;51.034;3.742;2023-04-03T06:20:02;11.30;;;7.95;;
34019;SDS011;20895;51.034;3.742;2023-04-03T06:22:28;14.07;;;8.05;;
34019;SDS011;20895;51.034;3.742;2023-04-03T06:24:55;11.32;;;7.53;;
34019;SDS011;20895;51.034;3.742;2023-04-03T06:27:20;12.02;;;8.35;;
34019;SDS011;20895;51.034;3.742;2023-04-03T06:29:45;13.05;;;7.50;;
34019;SDS011;20895;51.034;3.742;2023-04-03T06:32:11;11.50;;;9.07;;
34019;SDS011;20895;51.034;3.742;2023-04-03T06:34:36;13.25;;;7.63;;
34019;SDS011;20895;51.034;3.742;2023-04-03T06:37:02;9.35;;;7.70;;
34019;SDS011;20895;51.034;3.742;2023-04-03T06:39:27;11.68;;;7.72;;
34019;SDS011;20895;51.034;3.742;2023-04-03T06:41:52;17.63;;;14.18;;
34019;SDS011;20895;51.034;3.742;2023-04-03T06:44:18;10.48;;;7.82;;
34019;SDS011;20895;51.034;3.742;2023-04-03T06:46:43;11.95;;;7.93;;
34019;SDS011;20895;51.034;3.742;2023-04-03T06:49:09;14.70;;;7.80;;
34019;SDS011;20895;51.034;3.742;2023-04-03T06:51:34;13.20;;;7.40;;
34019;SDS011;20895;51.034;3.742;2023-04-03T06:54:00;8.85;;;7.07;;
34019;SDS011;20895;51.034;3.742;2023-04-03T06:56:26;14.57;;;7.85;;
34019;SDS011;20895;51.034;3.742;2023-04-03T06:58:52;13.00;;;7.80;;
34019;SDS011;20895;51.034;3.742;2023-04-03T07:01:19;11.00;;;6.97;;
34019;SDS011;20895;51.034;3.742;2023-04-03T07:03:45;11.48;;;6.50;;
34019;SDS011;20895;51.034;3.742;2023-04-03T07:06:12;9.65;;;7.03;;
34019;SDS011;20895;51.034;3.742;2023-04-03T07:08:37;7.25;;;6.20;;
34019;SDS011;20895;51.034;3.742;2023-04-03T07:11:03;11.05;;;6.40;;
34019;SDS011;20895;51.034;3.742;2023-04-03T07:13:28;9.32;;;6.20;;
34019;SDS011;20895;51.034;3.742;2023-04-03T07:15:54;8.88;;;5.93;;
34019;SDS011;20895;51.034;3.742;2023-04-03T07:18:19;10.75;;;6.80;;
34019;SDS011;20895;51.034;3.742;2023-04-03T07:20:46;8.63;;;5.78;;
34019;SDS011;20895;51.034;3.742;2023-04-03T07:23:11;8.65;;;6.85;;
34019;SDS011;20895;51.034;3.742;2023-04-03T07:25:37;10.35;;;6.05;;
34019;SDS011;20895;51.034;3.742;2023-04-03T07:28:02;7.65;;;5.88;;
34019;SDS011;20895;51.034;3.742;2023-04-03T07:30:28;8.70;;;5.32;;
34019;SDS011;20895;51.034;3.742;2023-04-03T07:32:54;7.95;;;6.18;;
34019;SDS011;20895;51.034;3.742;2023-04-03T07:35:20;10.65;;;6.60;;
34019;SDS011;20895;51.034;3.742;2023-04-03T07:37:45;8.02;;;6.35;;
34019;SDS011;20895;51.034;3.742;2023-04-03T07:40:11;14.65;;;7.45;;
34019;SDS011;20895;51.034;3.742;2023-04-03T07:42:36;15.05;;;6.75;;
34019;SDS011;20895;51.034;3.742;2023-04-03T07:45:02;11.25;;;7.25;;
34019;SDS011;20895;51.034;3.742;2023-04-03T07:47:28;9.35;;;6.05;;
34019;SDS011;20895;51.034;3.742;2023-04-03T07:49:53;7.88;;;5.97;;
34019;SDS011;20895;51.034;3.742;2023-04-03T07:52:18;7.95;;;5.80;;
34019;SDS011;20895;51.034;3.742;2023-04-03T07:54:44;7.75;;;5.50;;
34019;SDS011;20895;51.034;3.742;2023-04-03T07:57:09;7.35;;;5.50;;
34019;SDS011;20895;51.034;3.742;2023-04-03T07:59:35;7.65;;;5.43;;
34019;SDS011;20895;51.034;3.742;2023-04-03T08:02:00;9.45;;;5.93;;
34019;SDS011;20895;51.034;3.742;2023-04-03T08:04:26;9.07;;;5.68;;
34019;SDS011;20895;51.034;3.742;2023-04-03T08:06:52;10.55;;;6.10;;
34019;SDS011;20895;51.034;3.742;2023-04-03T08:09:17;10.20;;;6.47;;
34019;SDS011;20895;51.034;3.742;2023-04-03T08:11:43;11.90;;;6.20;;
34019;SDS011;20895;51.034;3.742;2023-04-03T08:14:09;8.13;;;6.20;;
34019;SDS011;20895;51.034;3.742;2023-04-03T08:16:40;11.43;;;6.55;;
34019;SDS011;20895;51.034;3.742;2023-04-03T08:19:06;10.20;;;5.57;;
34019;SDS011;20895;51.034;3.742;2023-04-03T08:21:32;10.77;;;6.38;;
34019;SDS011;20895;51.034;3.742;2023-04-03T08:23:57;8.52;;;6.47;;
34019;SDS011;20895;51.034;3.742;2023-04-03T08:26:23;9.10;;;6.10;;
34019;SDS011;20895;51.034;3.742;2023-04-03T08:28:48;10.35;;;6.53;;
34019;SDS011;20895;51.034;3.742;2023-04-03T08:31:15;15.82;;;6.95;;
34019;SDS011;20895;51.034;3.742;2023-04-03T08:33:41;8.63;;;5.95;;
34019;SDS011;20895;51.034;3.742;2023-04-03T08:36:07;9.48;;;5.90;;
34019;SDS011;20895;51.034;3.742;2023-04-03T08:38:33;8.70;;;6.03;;
34019;SDS011;20895;51.034;3.742;2023-04-03T08:41:07;9.00;;;5.28;;
34019;SDS011;20895;51.034;3.742;2023-04-03T08:43:39;8.75;;;5.50;;
34019;SDS011;20895;51.034;3.742;2023-04-03T08:46:11;7.68;;;5.10;;
34019;SDS011;20895;51.034;3.742;2023-04-03T08:48:39;7.45;;;3.58;;
34019;SDS011;20895;51.034;3.742;2023-04-03T08:51:11;7.72;;;3.15;;
34019;SDS011;20895;51.034;3.742;2023-04-03T08:53:40;6.82;;;3.75;;
34019;SDS011;20895;51.034;3.742;2023-04-03T08:56:10;11.48;;;5.18;;
34019;SDS011;20895;51.034;3.742;2023-04-03T08:58:42;7.90;;;2.80;;
34019;SDS011;20895;51.034;3.742;2023-04-03T09:01:17;6.38;;;3.10;;
34019;SDS011;20895;51.034;3.742;2023-04-03T09:03:43;6.10;;;3.45;;
34019;SDS011;20895;51.034;3.742;2023-04-03T09:16:58;6.47;;;2.47;;
34019;SDS011;20895;51.034;3.742;2023-04-03T09:19:02;8.82;;;4.55;;
34019;SDS011;20895;51.034;3.742;2023-04-03T09:21:38;5.18;;;3.10;;
34019;SDS011;20895;51.034;3.742;2023-04-03T09:24:04;3.67;;;2.17;;
34019;SDS011;20895;51.034;3.742;2023-04-03T09:26:36;4.15;;;2.42;;
34019;SDS011;20895;51.034;3.742;2023-04-03T09:29:07;7.37;;;2.63;;
34019;SDS011;20895;51.034;3.742;2023-04-03T09:31:36;4.53;;;2.42;;
34019;SDS011;20895;51.034;3.742;2023-04-03T09:34:03;7.65;;;3.05;;
34019;SDS011;20895;51.034;3.742;2023-04-03T09:36:39;4.68;;;2.38;;
34019;SDS011;20895;51.034;3.742;2023-04-03T09:41:30;5.88;;;2.08;;
34019;SDS011;20895;51.034;3.742;2023-04-03T09:43:58;4.20;;;2.08;;
34019;SDS011;20895;51.034;3.742;2023-04-03T09:46:25;6.10;;;2.30;;
34019;SDS011;20895;51.034;3.742;2023-04-03T09:48:59;6.97;;;2.72;;
34019;SDS011;20895;51.034;3.742;2023-04-03T09:51:26;6.22;;;2.45;;
34019;SDS011;20895;51.034;3.742;2023-04-03T09:53:52;6.20;;;3.00;;
34019;SDS011;20895;51.034;3.742;2023-04-03T10:06:23;3.35;;;1.70;;
34019;SDS011;20895;51.034;3.742;2023-04-03T10:08:59;5.93;;;2.90;;
34019;SDS011;20895;51.034;3.742;2023-04-03T10:11:26;5.93;;;2.50;;
34019;SDS011;20895;51.034;3.742;2023-04-03T10:13:55;6.78;;;2.10;;
34019;SDS011;20895;51.034;3.742;2023-04-03T10:16:25;5.30;;;2.60;;
34019;SDS011;20895;51.034;3.742;2023-04-03T10:19:14;7.13;;;4.20;;
34019;SDS011;20895;51.034;3.742;2023-04-03T10:21:47;5.88;;;2.72;;
34019;SDS011;20895;51.034;3.742;2023-04-03T10:24:14;7.75;;;2.92;;
34019;SDS011;20895;51.034;3.742;2023-04-03T10:29:38;10.23;;;2.50;;
34019;SDS011;20895;51.034;3.742;2023-04-03T10:34:43;6.07;;;3.05;;
34019;SDS011;20895;51.034;3.742;2023-04-03T10:37:20;5.18;;;1.90;;
34019;SDS011;20895;51.034;3.742;2023-04-03T10:49:51;4.20;;;1.75;;
34019;SDS011;20895;51.034;3.742;2023-04-03T10:52:22;3.38;;;1.63;;
34019;SDS011;20895;51.034;3.742;2023-04-03T10:54:52;2.67;;;1.70;;
34019;SDS011;20895;51.034;3.742;2023-04-03T10:57:20;5.57;;;2.10;;
34019;SDS011;20895;51.034;3.742;2023-04-03T10:59:51;3.45;;;1.85;;
34019;SDS011;20895;51.034;3.742;2023-04-03T11:04:44;4.95;;;2.05;;
34019;SDS011;20895;51.034;3.742;2023-04-03T11:07:14;3.45;;;1.45;;
34019;SDS011;20895;51.034;3.742;2023-04-03T11:09:41;3.42;;;1.80;;
34019;SDS011;20895;51.034;3.742;2023-04-03T11:14:56;7.40;;;1.90;;
34019;SDS011;20895;51.034;3.742;2023-04-03T11:17:36;8.90;;;2.03;;
34019;SDS011;20895;51.034;3.742;2023-04-03T11:20:23;5.30;;;1.65;;
34019;SDS011;20895;51.034;3.742;2023-04-03T11:25:36;4.40;;;1.70;;
34019;SDS011;20895;51.034;3.742;2023-04-03T11:28:04;6.10;;;2.30;;
34019;SDS011;20895;51.034;3.742;2023-04-03T11:30:38;3.72;;;1.67;;
34019;SDS011;20895;51.034;3.742;2023-04-03T11:33:10;3.60;;;1.67;;
34019;SDS011;20895;51.034;3.742;2023-04-03T11:35:42;4.80;;;1.80;;
34019;SDS011;20895;51.034;3.742;2023-04-03T11:38:10;2.95;;;1.63;;
34019;SDS011;20895;51.034;3.742;2023-04-03T11:40:39;3.17;;;1.35;;
34019;SDS011;20895;51.034;3.742;2023-04-03T11:43:07;3.38;;;1.33;;
34019;SDS011;20895;51.034;3.742;2023-04-03T11:50:43;3.70;;;1.35;;
34019;SDS011;20895;51.034;3.742;2023-04-03T11:58:14;4.63;;;1.70;;
34019;SDS011;20895;51.034;3.742;2023-04-03T12:08:50;2.55;;;1.48;;
34019;SDS011;20895;51.034;3.742;2023-04-03T12:16:21;2.58;;;1.30;;
34019;SDS011;20895;51.034;3.742;2023-04-03T12:18:55;7.05;;;2.00;;
34019;SDS011;20895;51.034;3.742;2023-04-03T12:22:03;3.42;;;1.02;;
34019;SDS011;20895;51.034;3.742;2023-04-03T12:39:41;2.38;;;1.50;;
34019;SDS011;20895;51.034;3.742;2023-04-03T12:44:55;1.63;;;0.85;;
34019;SDS011;20895;51.034;3.742;2023-04-03T12:47:25;3.63;;;1.13;;
34019;SDS011;20895;51.034;3.742;2023-04-03T12:49:52;3.28;;;1.65;;
34019;SDS011;20895;51.034;3.742;2023-04-03T12:52:19;5.03;;;1.45;;
34019;SDS011;20895;51.034;3.742;2023-04-03T12:54:46;9.07;;;1.80;;
34019;SDS011;20895;51.034;3.742;2023-04-03T12:57:22;6.20;;;1.58;;
34019;SDS011;20895;51.034;3.742;2023-04-03T12:59:48;3.70;;;1.38;;
34019;SDS011;20895;51.034;3.742;2023-04-03T13:02:31;4.43;;;1.50;;
34019;SDS011;20895;51.034;3.742;2023-04-03T13:04:59;2.03;;;1.23;;
34019;SDS011;20895;51.034;3.742;2023-04-03T13:07:30;2.65;;;1.10;;
34019;SDS011;20895;51.034;3.742;2023-04-03T13:10:19;3.05;;;0.80;;
34019;SDS011;20895;51.034;3.742;2023-04-03T13:12:47;3.08;;;1.63;;
34019;SDS011;20895;51.034;3.742;2023-04-03T13:15:15;2.00;;;1.00;;
34019;SDS011;20895;51.034;3.742;2023-04-03T13:17:41;2.05;;;1.05;;
34019;SDS011;20895;51.034;3.742;2023-04-03T13:20:40;1.75;;;1.08;;
34019;SDS011;20895;51.034;3.742;2023-04-03T13:23:02;2.75;;;1.10;;
34019;SDS011;20895;51.034;3.742;2023-04-03T13:25:30;4.18;;;1.88;;
34019;SDS011;20895;51.034;3.742;2023-04-03T13:27:57;3.42;;;1.10;;
34019;SDS011;20895;51.034;3.742;2023-04-03T13:30:24;4.53;;;1.33;;
34019;SDS011;20895;51.034;3.742;2023-04-03T13:32:50;1.70;;;1.02;;
34019;SDS011;20895;51.034;3.742;2023-04-03T13:37:57;3.88;;;1.92;;
34019;SDS011;20895;51.034;3.742;2023-04-03T13:40:23;4.78;;;2.50;;
34019;SDS011;20895;51.034;3.742;2023-04-03T13:42:58;3.13;;;1.50;;
34019;SDS011;20895;51.034;3.742;2023-04-03T13:45:25;2.40;;;1.50;;
34019;SDS011;20895;51.034;3.742;2023-04-03T13:47:53;1.95;;;1.20;;
34019;SDS011;20895;51.034;3.742;2023-04-03T13:50:26;1.95;;;1.15;;
34019;SDS011;20895;51.034;3.742;2023-04-03T13:53:08;2.63;;;0.77;;
34019;SDS011;20895;51.034;3.742;2023-04-03T13:55:35;2.83;;;1.50;;
34019;SDS011;20895;51.034;3.742;2023-04-03T14:00:38;3.10;;;1.38;;
34019;SDS011;20895;51.034;3.742;2023-04-03T14:05:44;2.83;;;0.95;;
34019;SDS011;20895;51.034;3.742;2023-04-03T14:08:10;2.25;;;0.95;;
34019;SDS011;20895;51.034;3.742;2023-04-03T14:10:36;2.22;;;1.10;;
34019;SDS011;20895;51.034;3.742;2023-04-03T14:13:01;1.92;;;1.35;;
34019;SDS011;20895;51.034;3.742;2023-04-03T14:15:28;2.03;;;1.10;;
34019;SDS011;20895;51.034;3.742;2023-04-03T14:17:55;1.35;;;1.00;;
34019;SDS011;20895;51.034;3.742;2023-04-03T14:20:21;4.25;;;1.38;;
34019;SDS011;20895;51.034;3.742;2023-04-03T14:22:47;3.72;;;1.50;;
34019;SDS011;20895;51.034;3.742;2023-04-03T14:25:13;2.22;;;1.20;;
34019;SDS011;20895;51.034;3.742;2023-04-03T14:27:40;2.75;;;1.30;;
34019;SDS011;20895;51.034;3.742;2023-04-03T14:30:07;2.05;;;1.10;;
34019;SDS011;20895;51.034;3.742;2023-04-03T14:32:32;4.38;;;1.30;;
34019;SDS011;20895;51.034;3.742;2023-04-03T14:34:58;1.10;;;0.73;;
34019;SDS011;20895;51.034;3.742;2023-04-03T14:37:25;2.28;;;1.40;;
34019;SDS011;20895;51.034;3.742;2023-04-03T14:39:53;3.15;;;1.05;;
34019;SDS011;20895;51.034;3.742;2023-04-03T14:42:22;5.10;;;1.33;;
34019;SDS011;20895;51.034;3.742;2023-04-03T14:44:48;3.78;;;1.50;;
34019;SDS011;20895;51.034;3.742;2023-04-03T14:47:14;2.65;;;1.02;;
34019;SDS011;20895;51.034;3.742;2023-04-03T14:49:41;2.67;;;1.00;;
34019;SDS011;20895;51.034;3.742;2023-04-03T14:52:09;1.80;;;1.20;;
34019;SDS011;20895;51.034;3.742;2023-04-03T14:54:41;3.05;;;1.10;;
34019;SDS011;20895;51.034;3.742;2023-04-03T14:57:08;2.28;;;1.42;;
34019;SDS011;20895;51.034;3.742;2023-04-03T14:59:34;3.30;;;1.20;;
34019;SDS011;20895;51.034;3.742;2023-04-03T15:01:59;2.53;;;1.48;;
34019;SDS011;20895;51.034;3.742;2023-04-03T15:04:24;5.93;;;1.60;;
34019;SDS011;20895;51.034;3.742;2023-04-03T15:06:50;2.63;;;1.50;;
34019;SDS011;20895;51.034;3.742;2023-04-03T15:09:25;3.10;;;1.20;;
34019;SDS011;20895;51.034;3.742;2023-04-03T15:11:52;5.25;;;1.15;;
34019;SDS011;20895;51.034;3.742;2023-04-03T15:14:18;2.75;;;1.20;;
34019;SDS011;20895;51.034;3.742;2023-04-03T15:16:43;5.15;;;1.67;;
34019;SDS011;20895;51.034;3.742;2023-04-03T15:19:09;6.30;;;1.20;;
34019;SDS011;20895;51.034;3.742;2023-04-03T15:21:35;2.53;;;1.08;;
34019;SDS011;20895;51.034;3.742;2023-04-03T15:24:00;3.78;;;1.27;;
34019;SDS011;20895;51.034;3.742;2023-04-03T15:26:26;2.70;;;1.27;;
34019;SDS011;20895;51.034;3.742;2023-04-03T15:28:51;3.75;;;1.20;;
34019;SDS011;20895;51.034;3.742;2023-04-03T15:31:17;2.33;;;1.02;;
34019;SDS011;20895;51.034;3.742;2023-04-03T15:33:42;3.70;;;1.20;;
34019;SDS011;20895;51.034;3.742;2023-04-03T15:36:07;4.10;;;1.27;;
34019;SDS011;20895;51.034;3.742;2023-04-03T15:38:33;6.18;;;1.50;;
34019;SDS011;20895;51.034;3.742;2023-04-03T15:40:58;3.72;;;1.48;;
34019;SDS011;20895;51.034;3.742;2023-04-03T15:43:24;3.30;;;1.40;;
34019;SDS011;20895;51.034;3.742;2023-04-03T15:45:49;3.95;;;1.33;;
34019;SDS011;20895;51.034;3.742;2023-04-03T15:48:15;2.83;;;1.58;;
34019;SDS011;20895;51.034;3.742;2023-04-03T15:50:41;2.33;;;1.17;;
34019;SDS011;20895;51.034;3.742;2023-04-03T15:53:07;2.47;;;1.08;;
34019;SDS011;20895;51.034;3.742;2023-04-03T15:55:33;4.65;;;1.05;;
34019;SDS011;20895;51.034;3.742;2023-04-03T15:57:59;6.57;;;1.70;;
34019;SDS011;20895;51.034;3.742;2023-04-03T16:00:25;1.55;;;1.08;;
34019;SDS011;20895;51.034;3.742;2023-04-03T16:02:52;1.98;;;1.17;;
34019;SDS011;20895;51.034;3.742;2023-04-03T16:05:19;3.25;;;1.58;;
34019;SDS011;20895;51.034;3.742;2023-04-03T16:07:45;2.92;;;1.15;;
34019;SDS011;20895;51.034;3.742;2023-04-03T16:10:11;3.40;;;1.00;;
34019;SDS011;20895;51.034;3.742;2023-04-03T16:12:36;1.63;;;1.08;;
34019;SDS011;20895;51.034;3.742;2023-04-03T16:15:02;1.67;;;1.15;;
34019;SDS011;20895;51.034;3.742;2023-04-03T16:17:28;4.93;;;1.60;;
34019;SDS011;20895;51.034;3.742;2023-04-03T16:19:55;3.63;;;1.23;;
34019;SDS011;20895;51.034;3.742;2023-04-03T16:22:21;1.48;;;0.77;;